Latest Weather Observations for Fort Denison

IDN60801

Issued at 6:05 pm EDT Saturday 29 November 2014 (issued every 30 minutes, with the page automatically refreshed every 10 minutes)

About weather observations | Map of weather stations | Latest weather observations for NSW | Other Formats
Station Details ID: 066022 Name: FORT DENISON Lat: -33.86 Lon: 151.23 Height: 5.0 m
Data from the previous 72 hours. | See also: Recent months for locations in New South Wales
Date/Time
EDT
Temp
°C
App
Temp
°C
Dew
Point
Rel
Hum
%
Delta-T
°C
Wind Press
QNH
hPa
Press
MSL
hPa
Rain
since 9 am
mm
Dir
 
Spd
km/h
Gust
km/h
Spd
kts
Gust
kts
29/06:00pm - - - - - NE 20 33 11 18 - - -
29/05:30pm - - - - - NE 22 37 12 20 - - -
29/05:00pm - - - - - NE 20 33 11 18 - - -
29/04:30pm - - - - - NE 26 41 14 22 - - -
29/04:00pm - - - - - ENE 20 35 11 19 - - -
29/03:30pm - - - - - ENE 26 37 14 20 - - -
29/03:00pm - - - - - ENE 28 39 15 21 - - -
29/02:30pm - - - - - E 30 35 16 19 - - -
29/02:00pm - - - - - E 28 33 15 18 - - -
29/01:30pm - - - - - E 24 30 13 16 - - -
29/01:00pm - - - - - E 24 28 13 15 - - -
29/12:30pm - - - - - E 26 30 14 16 - - -
29/12:00pm - - - - - E 24 30 13 16 - - -
29/11:30am - - - - - E 22 28 12 15 - - -
29/11:00am - - - - - E 20 22 11 12 - - -
29/10:30am - - - - - E 17 19 9 10 - - -
29/10:00am - - - - - ESE 7 11 4 6 - - -
29/09:30am - - - - - SW 2 6 1 3 - - -
29/09:00am - - - - - W 7 9 4 5 - - -
29/08:30am - - - - - W 11 13 6 7 - - -
29/08:00am - - - - - W 15 17 8 9 - - -
29/07:30am - - - - - W 11 13 6 7 - - -
29/07:00am - - - - - W 9 11 5 6 - - -
29/06:30am - - - - - WNW 7 9 4 5 - - -
29/06:00am - - - - - W 11 15 6 8 - - -
29/05:30am - - - - - W 9 11 5 6 - - -
29/05:00am - - - - - W 13 15 7 8 - - -
29/04:30am - - - - - WNW 11 13 6 7 - - -
29/04:00am - - - - - WNW 6 7 3 4 - - -
29/03:30am - - - - - W 9 11 5 6 - - -
29/03:00am - - - - - W 11 11 6 6 - - -
29/02:30am - - - - - W 9 11 5 6 - - -
29/02:00am - - - - - NNW 6 7 3 4 - - -
29/01:30am - - - - - NE 6 11 3 6 - - -
29/01:00am - - - - - NE 7 13 4 7 - - -
29/12:30am - - - - - NE 11 19 6 10 - - -
29/12:00am - - - - - NE 17 22 9 12 - - -
 
Date/Time
EDT
Temp
°C
App
Temp
°C
Dew
Point
Rel
Hum
%
Delta-T
°C
Wind Press
QNH
hPa
Press
MSL
hPa
Rain
since 9 am
mm
Dir
 
Spd
km/h
Gust
km/h
Spd
kts
Gust
kts
28/11:30pm - - - - - ENE 15 22 8 12 - - -
28/11:00pm - - - - - NE 15 24 8 13 - - -
28/10:30pm - - - - - NE 15 24 8 13 - - -
28/10:00pm - - - - - ENE 13 20 7 11 - - -
28/09:30pm - - - - - NE 15 20 8 11 - - -
28/09:00pm - - - - - ENE 20 30 11 16 - - -
28/08:30pm - - - - - ENE 20 30 11 16 - - -
28/08:00pm - - - - - ENE 19 28 10 15 - - -
28/07:30pm - - - - - ENE 24 32 13 17 - - -
28/07:00pm - - - - - ENE 24 30 13 16 - - -
28/06:30pm - - - - - ENE 24 32 13 17 - - -
28/06:00pm - - - - - E 24 32 13 17 - - -
28/05:30pm - - - - - E 26 33 14 18 - - -
28/05:00pm - - - - - ENE 26 32 14 17 - - -
28/04:30pm - - - - - ENE 22 30 12 16 - - -
28/04:00pm - - - - - ENE 22 26 12 14 - - -
28/03:30pm - - - - - ENE 19 24 10 13 - - -
28/03:00pm - - - - - E 19 26 10 14 - - -
28/02:30pm - - - - - ENE 19 26 10 14 - - -
28/02:00pm - - - - - ENE 17 24 9 13 - - -
28/01:30pm - - - - - ENE 19 24 10 13 - - -
28/01:00pm - - - - - E 17 24 9 13 - - -
28/12:30pm - - - - - E 17 26 9 14 - - -
28/12:00pm - - - - - ESE 17 24 9 13 - - -
28/11:30am - - - - - E 19 26 10 14 - - -
28/11:00am - - - - - E 17 22 9 12 - - -
28/10:30am - - - - - E 17 22 9 12 - - -
28/10:00am - - - - - E 15 20 8 11 - - -
28/09:30am - - - - - E 13 19 7 10 - - -
28/09:00am - - - - - E 13 20 7 11 - - -
28/08:30am - - - - - E 9 13 5 7 - - -
28/08:00am - - - - - ESE 9 17 5 9 - - -
28/07:30am - - - - - SE 7 15 4 8 - - -
28/07:00am - - - - - S 4 6 2 3 - - -
28/06:30am - - - - - S 6 7 3 4 - - -
28/06:00am - - - - - SSE 6 11 3 6 - - -
28/05:30am - - - - - SSE 9 11 5 6 - - -
28/05:00am - - - - - SSE 9 13 5 7 - - -
28/04:30am - - - - - SSE 9 11 5 6 - - -
28/04:00am - - - - - SSE 9 15 5 8 - - -
28/03:30am - - - - - SSE 11 17 6 9 - - -
28/03:00am - - - - - SE 9 15 5 8 - - -
28/02:30am - - - - - SSE 11 15 6 8 - - -
28/02:00am - - - - - SSE 11 17 6 9 - - -
28/01:30am - - - - - SE 11 17 6 9 - - -
28/01:00am - - - - - SE 11 17 6 9 - - -
28/12:30am - - - - - SE 11 15 6 8 - - -
28/12:00am - - - - - SE 13 19 7 10 - - -
 
Date/Time
EDT
Temp
°C
App
Temp
°C
Dew
Point
Rel
Hum
%
Delta-T
°C
Wind Press
QNH
hPa
Press
MSL
hPa
Rain
since 9 am
mm
Dir
 
Spd
km/h
Gust
km/h
Spd
kts
Gust
kts
27/11:30pm - - - - - ESE 15 20 8 11 - - -
27/11:00pm - - - - - SE 11 15 6 8 - - -
27/10:30pm - - - - - SE 13 19 7 10 - - -
27/10:00pm - - - - - ESE 15 19 8 10 - - -
27/09:30pm - - - - - SE 13 20 7 11 - - -
27/09:00pm - - - - - SE 15 22 8 12 - - -
27/08:30pm - - - - - SE 13 20 7 11 - - -
27/08:00pm - - - - - SE 15 22 8 12 - - -
27/07:30pm - - - - - SE 13 22 7 12 - - -
27/07:00pm - - - - - SE 15 22 8 12 - - -
27/06:30pm - - - - - SSE 19 26 10 14 - - -
27/06:00pm - - - - - SE 15 22 8 12 - - -
27/05:30pm - - - - - SSE 19 26 10 14 - - -
27/05:00pm - - - - - SSE 17 24 9 13 - - -
27/04:30pm - - - - - SSE 15 22 8 12 - - -
27/04:00pm - - - - - ESE 20 28 11 15 - - -
27/03:30pm - - - - - SE 17 24 9 13 - - -
27/03:00pm - - - - - SE 20 32 11 17 - - -
27/02:30pm - - - - - SSE 22 32 12 17 - - -
27/02:00pm - - - - - SSE 20 30 11 16 - - -
27/01:30pm - - - - - SSE 20 32 11 17 - - -
27/01:00pm - - - - - SSE 24 33 13 18 - - -
27/12:30pm - - - - - SE 24 32 13 17 - - -
27/12:00pm - - - - - SE 17 26 9 14 - - -
27/11:30am - - - - - SSE 20 30 11 16 - - -
27/11:00am - - - - - SSE 20 28 11 15 - - -
27/10:30am - - - - - SSE 24 32 13 17 - - -
27/10:00am - - - - - SE 19 28 10 15 - - -
27/09:30am - - - - - SSE 22 30 12 16 - - -
27/09:00am - - - - - SSE 26 37 14 20 - - -
27/08:30am - - - - - SSE 24 32 13 17 - - -
27/08:00am - - - - - SSE 24 35 13 19 - - -
27/07:30am - - - - - SSE 24 37 13 20 - - -
27/07:00am - - - - - SE 22 35 12 19 - - -
27/06:30am - - - - - SE 20 30 11 16 - - -
27/06:00am - - - - - ESE 32 43 17 23 - - -
27/05:30am - - - - - SE 28 41 15 22 - - -
27/05:00am - - - - - SE 20 33 11 18 - - -
27/04:30am - - - - - SE 20 32 11 17 - - -
27/04:00am - - - - - SE 7 11 4 6 - - -
27/03:30am - - - - - SSE 11 13 6 7 - - -
27/03:00am - - - - - SE 7 11 4 6 - - -
27/02:30am - - - - - SE 9 13 5 7 - - -
27/02:00am - - - - - SE 7 15 4 8 - - -
27/01:30am - - - - - SSE 7 11 4 6 - - -
27/01:00am - - - - - SE 7 13 4 7 - - -
27/12:30am - - - - - SE 7 11 4 6 - - -
27/12:00am - - - - - ESE 9 15 5 8 - - -
 
Date/Time
EDT
Temp
°C
App
Temp
°C
Dew
Point
Rel
Hum
%
Delta-T
°C
Wind Press
QNH
hPa
Press
MSL
hPa
Rain
since 9 am
mm
Dir
 
Spd
km/h
Gust
km/h
Spd
kts
Gust
kts
26/11:30pm - - - - - E 15 19 8 10 - - -
26/11:00pm - - - - - E 19 22 10 12 - - -
26/10:30pm - - - - - ESE 15 19 8 10 - - -
26/10:00pm - - - - - ESE 17 20 9 11 - - -
26/09:30pm - - - - - E 19 24 10 13 - - -
26/09:00pm - - - - - E 20 24 11 13 - - -
26/08:30pm - - - - - E 20 26 11 14 - - -
26/08:00pm - - - - - ENE 20 30 11 16 - - -
26/07:30pm - - - - - ENE 24 32 13 17 - - -
26/07:00pm - - - - - ENE 24 32 13 17 - - -
26/06:30pm - - - - - ENE 24 35 13 19 - - -

Other Formats:

Comma delimited format used in spreadsheet applications
http://www.bom.gov.au/fwo/IDN60801/IDN60801.94769.axf

JavaScript Object Notation format (JSON) in row-major order
http://www.bom.gov.au/fwo/IDN60801/IDN60801.94769.json